createdAt,value
2023-03-19T06:02:57.624Z,61.75
2023-03-19T06:05:27.802Z,63.55
2023-03-19T06:08:04.593Z,69.53
2023-03-19T06:10:34.824Z,63.88
2023-03-19T06:13:11.529Z,62.90
2023-03-19T06:15:42.090Z,68.68
2023-03-19T06:18:21.577Z,66.05
2023-03-19T06:20:51.808Z,70.63
2023-03-19T06:23:28.583Z,67.03
2023-03-19T06:25:58.699Z,72.22
2023-03-19T06:28:35.619Z,70.97
2023-03-19T06:31:05.679Z,66.07
2023-03-19T06:33:44.575Z,72.80
2023-03-19T06:36:15.172Z,68.30
2023-03-19T06:38:51.601Z,70.32
2023-03-19T06:41:21.947Z,69.78
2023-03-19T06:43:58.640Z,68.20
2023-03-19T06:46:28.780Z,72.95
2023-03-19T06:49:07.579Z,74.43
2023-03-19T06:51:44.618Z,67.63
2023-03-19T06:54:14.676Z,74.38
2023-03-19T06:56:51.615Z,73.90
2023-03-19T06:59:22.184Z,81.68
2023-03-19T07:01:58.664Z,79.38
2023-03-19T07:04:31.422Z,83.53
2023-03-19T07:07:08.624Z,70.45
2023-03-19T07:09:38.688Z,72.47
2023-03-19T07:12:16.615Z,72.30
2023-03-19T07:14:46.563Z,77.72
2023-03-19T07:17:22.677Z,81.57
2023-03-19T07:19:55.575Z,89.63
2023-03-19T07:22:32.666Z,93.20
2023-03-19T07:25:09.671Z,102.60
2023-03-19T07:27:39.723Z,93.50
2023-03-19T07:30:19.700Z,90.07
2023-03-19T07:32:56.870Z,76.85
2023-03-19T07:35:29.620Z,73.28
2023-03-19T07:38:05.658Z,83.82
2023-03-19T07:40:51.330Z,72.80
2023-03-19T07:43:29.339Z,79.28
2023-03-19T07:46:05.808Z,69.57
2023-03-19T07:48:35.933Z,74.18
2023-03-19T07:51:15.732Z,71.15
2023-03-19T07:53:45.712Z,71.20
2023-03-19T07:56:22.736Z,81.53
2023-03-19T07:58:52.791Z,66.55
2023-03-19T08:01:29.717Z,60.55
2023-03-19T08:04:06.884Z,59.10
2023-03-19T08:06:40.140Z,59.10
2023-03-19T08:09:16.718Z,57.17
2023-03-19T08:11:47.243Z,60.97
2023-03-19T08:14:25.764Z,61.30
2023-03-19T08:16:55.999Z,58.05
2023-03-19T08:19:32.725Z,58.17
2023-03-19T08:22:05.492Z,65.32
2023-03-19T08:24:41.826Z,72.15
2023-03-19T08:27:12.373Z,68.88
2023-03-19T08:29:48.785Z,44.08
2023-03-19T08:32:25.748Z,41.10
2023-03-19T08:34:55.907Z,45.92
2023-03-19T08:37:35.744Z,44.60
2023-03-19T08:40:06.310Z,49.40
2023-03-19T08:42:46.847Z,47.85
2023-03-19T08:45:19.006Z,49.35
2023-03-19T08:47:55.763Z,45.92
2023-03-19T08:50:25.882Z,48.05
2023-03-19T08:53:05.762Z,43.92
2023-03-19T08:55:35.888Z,44.15
2023-03-19T08:58:12.797Z,46.03
2023-03-19T09:00:42.859Z,42.88
2023-03-19T09:03:19.825Z,38.72
2023-03-19T09:05:56.745Z,45.13
2023-03-19T09:08:29.470Z,42.95
2023-03-19T09:11:06.795Z,45.63
2023-03-19T09:13:38.337Z,43.83
2023-03-19T09:16:15.922Z,42.25
2023-03-19T09:18:46.128Z,35.80
2023-03-19T09:21:22.778Z,34.00
2023-03-19T09:23:55.643Z,37.63
2023-03-19T09:26:32.841Z,42.35
2023-03-19T09:29:03.649Z,41.55
2023-03-19T09:31:39.935Z,42.60
2023-03-19T09:34:10.465Z,41.25
2023-03-19T09:36:48.141Z,40.65
2023-03-19T09:39:26.813Z,41.50
2023-03-19T09:42:22.631Z,40.13
2023-03-19T09:45:01.847Z,40.25
2023-03-19T09:47:42.120Z,38.55
2023-03-19T09:50:18.722Z,38.20
2023-03-19T09:52:57.815Z,39.83
2023-03-19T09:55:44.197Z,41.88
2023-03-19T09:58:25.886Z,37.17
2023-03-19T10:01:03.817Z,38.20
2023-03-19T10:03:53.922Z,43.33
2023-03-19T10:06:38.847Z,42.60
2023-03-19T10:09:36.550Z,42.15
2023-03-19T10:12:40.834Z,76.68
2023-03-19T10:15:22.671Z,54.00
2023-03-19T10:18:09.948Z,39.08
2023-03-19T10:20:51.002Z,38.25
2023-03-19T10:23:43.925Z,40.00
2023-03-19T10:26:18.509Z,40.47
2023-03-19T10:29:08.061Z,39.53
2023-03-19T10:31:57.017Z,41.08
2023-03-19T10:34:37.865Z,42.83
2023-03-19T10:37:22.938Z,41.25
2023-03-19T10:39:55.094Z,41.60
2023-03-19T10:43:01.927Z,43.35
2023-03-19T10:45:44.064Z,43.22
2023-03-19T10:48:20.834Z,45.17
2023-03-19T10:51:02.940Z,41.50
2023-03-19T10:56:23.206Z,48.10
2023-03-19T10:59:09.932Z,48.80
2023-03-19T11:01:44.468Z,42.72
2023-03-19T11:04:25.982Z,44.38
2023-03-19T11:07:03.936Z,39.80
2023-03-19T11:09:37.896Z,41.95
2023-03-19T11:12:29.950Z,41.33
2023-03-19T11:15:03.697Z,39.13
2023-03-19T11:17:49.969Z,39.75
2023-03-19T11:20:32.000Z,40.15
2023-03-19T11:25:44.191Z,42.95
2023-03-19T11:28:26.137Z,45.22
2023-03-19T11:31:05.301Z,43.67
2023-03-19T11:34:17.954Z,45.60
2023-03-19T11:36:59.761Z,49.97
2023-03-19T11:39:43.958Z,49.42
2023-03-19T11:42:47.250Z,47.67
2023-03-19T11:45:41.656Z,48.88
2023-03-19T11:48:39.155Z,46.47
2023-03-19T11:51:25.975Z,46.75
2023-03-19T11:54:07.834Z,46.60
2023-03-19T11:56:54.159Z,47.25
2023-03-19T11:59:58.069Z,44.25
2023-03-19T12:02:58.887Z,49.80
2023-03-19T12:05:43.034Z,50.13
2023-03-19T12:08:32.763Z,49.65
2023-03-19T12:11:23.042Z,46.88
2023-03-19T12:14:30.050Z,50.63
2023-03-19T12:17:26.071Z,49.17
2023-03-19T12:20:26.464Z,51.30
2023-03-19T12:23:37.071Z,53.90
2023-03-19T12:26:16.021Z,53.13
2023-03-19T12:28:57.058Z,53.20
2023-03-19T12:32:24.076Z,51.75
2023-03-19T12:34:58.577Z,45.10
2023-03-19T12:37:42.085Z,44.75
2023-03-19T12:40:30.958Z,48.30
2023-03-19T12:43:12.036Z,47.10
2023-03-19T12:45:46.759Z,43.90
2023-03-19T12:48:31.101Z,41.15
2023-03-19T12:51:08.368Z,42.55
2023-03-19T12:53:57.058Z,44.65
2023-03-19T12:56:46.110Z,44.95
2023-03-19T12:59:27.640Z,39.28
2023-03-19T13:02:12.171Z,34.55
2023-03-19T13:04:51.001Z,32.95
2023-03-19T13:07:33.122Z,34.65
2023-03-19T13:10:11.070Z,32.72
2023-03-19T13:12:51.136Z,32.85
2023-03-19T13:15:30.701Z,30.77
2023-03-19T13:18:25.189Z,30.80
2023-03-19T13:21:14.727Z,33.72
2023-03-19T13:23:55.117Z,28.38
2023-03-19T13:26:25.657Z,29.70
2023-03-19T13:29:12.095Z,29.15
2023-03-19T13:31:42.208Z,28.77
2023-03-19T13:34:34.171Z,28.73
2023-03-19T13:37:11.235Z,25.05
2023-03-19T13:39:49.182Z,25.70
2023-03-19T13:42:42.695Z,27.85
2023-03-19T13:45:45.140Z,27.33
2023-03-19T13:48:41.683Z,26.40
2023-03-19T13:51:39.136Z,25.25
2023-03-19T13:54:20.110Z,25.25
2023-03-19T13:57:26.180Z,25.90
2023-03-19T14:00:03.160Z,25.17
